Aérodrome :







RETROUVEZ-NOUS SUR...

 
LOGIN :

S'inscrire | Disclaimer

   EN    FR    IT 

 









Légende :    VFR   VFR Marginal   IFR   IFR Intensif   IFR Très Intensif
Visi : 
Plafond : 
>= 8 km
>= 3000ft
5 à 8 km
1000 à 3000 ft
1500m à 5 km
500 à 1000 ft
800 à 1500m
200 à 500 ft
< 800m
< 200 ft
Symboles :   Orages  Brouillard  Fortes neiges  Fortes précipitations  Vent > 20 kt






- Altitude de l'aérodrome : 244 ft
- Code IATA : YQB


CYQB - Quebec - Jean Lesage Int.

DERNIER METAR :
  • 200400Z 07006KT 5SM -FZDZ BR OVC005 M00/M01 A2994 RMK ST8 SLP143

METARs EXPIRÉS :
  • 200313Z 06008KT 6SM BR OVC004 M00/M01 A2993 RMK ST8 SLP140
  • 200300Z 07008KT 8SM OVC005 M00/M01 A2993 RMK ST8 SLP141
  • 200200Z 08007KT 8SM OVC005 M00/M01 A2992 RMK ST8 SLP138

TAF AMD TAF CYQB
Valide du 20 à 04h jusqu'au 21 à 00h UTC


200407Z 2004/2024 07006KT 2SM -FZDZ BR OVC005
TEMPO 2004/2013 6SM -SN BR OVC008
FM201300 07008KT P6SM BKN010 OVC070
TEMPO 2013/2019 3SM -SN BR OVC010
FM201900 VRB03KT P6SM SCT015 BKN060 RMK NXT FCST BY 200600Z
ATIS : ENG : +1 418-871-6893 FRA : +1 418-871-6895



MET'MAP, la Météo Aéronautique d'un coup d'oeil ! - Copyright ORBIFLY Décembre 2007 - Disclaimer

ORBIFLY MET'MAP TEAM :

Programmation & Développement : Alexandra Zaïnal
Conception & Développement : Baudouin d'Aumeries
Co-Programmation & Développement : Marc-Olivier Méhu
Soutien technique & logistique : Manuel Goepfert

Contact : metmap@orbifly.com




SOURCES & CREDITS :

   NOAA